Time;durP1;ratioP1;P1;durP2;ratioP2;P2;SDS_P1;SDS_P2;PMS_P1;PMS_P2;Temp;Humidity;BMP_temperature;BMP_pressure;BME280_temperature;BME280_humidity;BME280_pressure;Samples;Min_cycle;Max_cycle;Signal;HPM_P1;HPM_P2
2022/12/16 00:01:26;;;;;;;165.92;75.83;;;;;;;-4.30;81.05;100500.77;1722420;81;27457;-77
2022/12/16 00:03:55;;;;;;;167.75;73.80;;;;;;;-4.27;81.39;100491.41;1721958;81;25854;-77
2022/12/16 00:06:25;;;;;;;167.47;79.80;;;;;;;-4.22;81.87;100487.59;1720437;82;26025;-77
2022/12/16 00:08:52;;;;;;;180.25;77.72;;;;;;;-4.16;82.31;100485.89;1729379;81;25848;-77
2022/12/16 00:11:18;;;;;;;172.82;75.45;;;;;;;-4.10;82.54;100480.73;1729748;81;25910;-78
2022/12/16 00:13:46;;;;;;;166.77;71.60;;;;;;;-4.04;82.71;100486.88;1727746;81;28291;-77
2022/12/16 00:16:15;;;;;;;173.00;74.95;;;;;;;-4.00;82.93;100486.59;1733008;81;26406;-78
2022/12/16 00:18:42;;;;;;;168.55;74.50;;;;;;;-3.96;83.26;100489.38;1733321;81;26367;-77
2022/12/16 00:21:09;;;;;;;164.97;74.25;;;;;;;-3.91;83.57;100484.70;1725037;83;26456;-78
2022/12/16 00:23:43;;;;;;;172.55;78.62;;;;;;;-3.91;83.57;100484.70;1733303;81;25904;-77
2022/12/16 00:26:11;;;;;;;160.35;74.05;;;;;;;-3.88;83.74;100492.83;1724301;81;28341;-78
2022/12/16 00:28:39;;;;;;;173.68;76.62;;;;;;;-3.90;83.70;100496.02;1735067;81;25891;-78
2022/12/16 00:31:06;;;;;;;156.52;68.70;;;;;;;-3.91;83.85;100491.23;1736011;81;25882;-77
2022/12/16 00:33:32;;;;;;;161.62;72.45;;;;;;;-3.89;83.84;100495.55;1731967;82;26524;-78
2022/12/16 00:35:58;;;;;;;169.77;74.70;;;;;;;-3.90;83.87;100488.16;1730429;82;25288;-78
2022/12/16 00:38:26;;;;;;;164.32;73.65;;;;;;;-3.89;84.03;100485.90;1733252;82;27518;-77
2022/12/16 00:40:52;;;;;;;165.05;70.83;;;;;;;-3.85;84.07;100489.18;1737428;81;26554;-77
2022/12/16 00:43:19;;;;;;;163.72;70.42;;;;;;;-3.81;84.14;100495.89;1735923;81;26345;-78
2022/12/16 00:45:46;;;;;;;171.68;71.17;;;;;;;-3.78;84.21;100495.22;1731846;82;25943;-77
2022/12/16 00:48:13;;;;;;;160.75;72.60;;;;;;;-3.74;84.14;100493.26;1736234;81;25933;-78
2022/12/16 00:50:39;;;;;;;158.05;71.65;;;;;;;-3.69;84.04;100501.63;1733327;82;27521;-78
2022/12/16 00:53:06;;;;;;;156.25;68.72;;;;;;;-3.67;83.92;100508.91;1731496;82;25752;-78
2022/12/16 00:55:32;;;;;;;156.72;71.82;;;;;;;-3.65;83.87;100514.89;1732532;81;25794;-77
2022/12/16 00:57:58;;;;;;;154.38;68.28;;;;;;;-3.62;83.72;100509.00;1734933;81;25755;-78
2022/12/16 01:00:25;;;;;;;156.28;71.60;;;;;;;-3.63;83.56;100510.39;1733841;81;25709;-77
2022/12/16 01:02:52;;;;;;;155.20;72.60;;;;;;;-3.61;83.54;100517.21;1733812;81;27499;-77
2022/12/16 01:05:25;;;;;;;150.03;69.47;;;;;;;-3.60;83.46;100516.28;1733054;82;25912;-77
2022/12/16 01:07:50;;;;;;;156.67;69.47;;;;;;;-3.58;83.27;100513.56;1739590;81;25488;-77
2022/12/16 01:10:16;;;;;;;144.25;64.92;;;;;;;-3.58;83.27;100513.56;1726189;82;25773;-78
2022/12/16 01:12:43;;;;;;;147.60;65.25;;;;;;;-3.58;83.31;100521.41;1732966;81;25719;-78
2022/12/16 01:15:11;;;;;;;149.27;67.78;;;;;;;-3.58;83.43;100507.86;1723220;83;27460;-77
2022/12/16 01:17:38;;;;;;;140.30;62.48;;;;;;;-3.57;83.40;100493.82;1729892;82;26046;-77
2022/12/16 01:20:06;;;;;;;130.05;59.10;;;;;;;-3.55;83.71;100489.32;1703716;83;26426;-77
2022/12/16 01:22:34;;;;;;;134.05;61.20;;;;;;;-3.56;83.42;100487.66;1734735;81;26576;-77
2022/12/16 01:25:01;;;;;;;131.30;56.95;;;;;;;-3.61;83.49;100480.56;1694021;84;25949;-78
2022/12/16 01:27:28;;;;;;;132.30;57.75;;;;;;;-3.54;83.57;100500.64;1734042;82;28818;-78
2022/12/16 01:29:55;;;;;;;114.85;52.62;;;;;;;-3.53;83.52;100502.33;1726007;82;25814;-77
2022/12/16 01:32:22;;;;;;;123.87;57.15;;;;;;;-3.55;83.34;100493.74;1731108;81;25921;-77
2022/12/16 01:34:50;;;;;;;122.98;53.50;;;;;;;-3.59;83.23;100487.03;1734588;81;25780;-77
2022/12/16 01:37:17;;;;;;;119.33;54.53;;;;;;;-3.60;83.22;100485.34;1733062;81;25336;-79
2022/12/16 01:39:44;;;;;;;122.50;55.50;;;;;;;-3.72;83.36;100458.17;1724097;83;27444;-77
2022/12/16 01:42:16;;;;;;;123.75;56.48;;;;;;;-3.64;83.24;100468.16;1703388;83;25800;-77
2022/12/16 01:44:47;;;;;;;134.25;54.55;;;;;;;-3.64;83.37;100469.00;1715613;83;25725;-77
2022/12/16 01:47:21;;;;;;;130.35;55.25;;;;;;;-3.66;83.31;100468.27;1724652;82;25782;-77
2022/12/16 01:49:53;;;;;;;130.67;56.92;;;;;;;-3.68;83.35;100458.38;1730659;81;25846;-77
2022/12/16 01:52:25;;;;;;;122.70;55.08;;;;;;;-3.70;83.29;100453.67;1722369;81;28309;-77
2022/12/16 01:54:57;;;;;;;115.75;49.55;;;;;;;-3.73;83.33;100448.66;1734908;81;25790;-77
2022/12/16 01:57:32;;;;;;;121.55;51.42;;;;;;;-3.76;83.41;100446.23;1729778;81;25746;-77
2022/12/16 02:00:00;;;;;;;108.92;49.48;;;;;;;-3.81;83.48;100441.78;1715565;81;25794;-78
2022/12/16 02:02:27;;;;;;;98.72;45.20;;;;;;;-3.82;83.74;100450.56;1707852;82;25862;-78
2022/12/16 02:07:38;;;;;;;108.32;47.00;;;;;;;-3.85;84.00;100452.55;1717846;81;26651;-77
2022/12/16 02:10:07;;;;;;;114.15;49.83;;;;;;;-3.83;84.20;100451.98;1712166;82;25837;-77
2022/12/16 02:12:51;;;;;;;100.30;44.45;;;;;;;-3.82;84.26;100455.80;1723969;81;25783;-77
2022/12/16 02:15:46;;;;;;;99.62;45.10;;;;;;;-3.79;84.39;100459.53;1690337;82;26495;-78
2022/12/16 02:18:18;;;;;;;103.05;44.48;;;;;;;-3.76;84.42;100454.08;1701686;83;28453;-77
2022/12/16 02:21:07;;;;;;;105.07;43.08;;;;;;;-3.75;84.37;100440.07;1719610;83;25727;-77
2022/12/16 02:24:06;;;;;;;105.67;45.28;;;;;;;-3.75;84.29;100432.22;1735501;81;25723;-78
2022/12/16 02:26:47;;;;;;;95.30;43.63;;;;;;;-3.76;84.29;100432.33;1691588;84;25812;-77
2022/12/16 02:29:58;;;;;;;91.67;42.58;;;;;;;-3.79;84.27;100427.28;1727652;81;25840;-78
2022/12/16 02:32:36;;;;;;;97.55;41.00;;;;;;;-3.81;84.51;100434.40;1735049;81;27486;-77
2022/12/16 02:35:10;;;;;;;94.00;43.00;;;;;;;-3.80;84.55;100436.06;1719134;81;25793;-77
2022/12/16 02:37:58;;;;;;;94.55;45.90;;;;;;;-3.81;84.47;100435.70;1723053;83;26378;-78
2022/12/16 02:40:44;;;;;;;101.75;47.25;;;;;;;-3.85;84.43;100440.77;1728016;81;26816;-77
2022/12/16 02:43:50;;;;;;;99.95;44.45;;;;;;;-3.85;84.64;100437.70;1706679;83;25578;-77
2022/12/16 02:46:21;;;;;;;91.65;41.13;;;;;;;-3.85;84.45;100423.77;1698664;82;27489;-78
2022/12/16 02:48:47;;;;;;;102.22;46.25;;;;;;;-3.92;84.40;100417.63;1698051;83;33571;-77
2022/12/16 02:51:14;;;;;;;98.52;42.53;;;;;;;-3.96;84.54;100409.59;1730973;82;25777;-77
2022/12/16 02:53:42;;;;;;;90.85;42.78;;;;;;;-3.96;84.58;100406.97;1727968;82;25761;-77
2022/12/16 02:56:43;;;;;;;99.72;43.42;;;;;;;-3.97;84.72;100410.54;1726092;83;26534;-77
2022/12/16 02:59:18;;;;;;;99.60;44.95;;;;;;;-3.96;84.74;100421.36;1690727;83;33169;-77
2022/12/16 03:01:58;;;;;;;96.00;41.68;;;;;;;-3.96;84.91;100421.36;1704035;82;26407;-77
2022/12/16 03:04:33;;;;;;;99.50;42.23;;;;;;;-3.97;84.82;100414.46;1719695;82;26246;-77
2022/12/16 03:07:00;;;;;;;97.80;43.38;;;;;;;-3.98;84.86;100415.88;1681420;81;25973;-78
2022/12/16 03:09:31;;;;;;;94.35;42.33;;;;;;;-4.00;84.82;100399.45;1734257;81;25788;-77
2022/12/16 03:12:02;;;;;;;90.90;40.50;;;;;;;-4.05;84.88;100397.13;1733786;81;27454;-78
2022/12/16 03:14:32;;;;;;;90.32;41.83;;;;;;;-4.08;84.97;100395.16;1735165;81;25847;-78
2022/12/16 03:16:59;;;;;;;;;;;;;;;-4.10;85.17;100399.65;1735099;81;25899;-77
2022/12/16 03:19:27;;;;;;;88.65;37.78;;;;;;;-4.12;85.31;100402.84;1734764;81;25800;-77
2022/12/16 03:22:07;;;;;;;93.47;40.65;;;;;;;-4.13;85.51;100398.56;1707609;82;25359;-77
2022/12/16 03:24:35;;;;;;;81.45;34.85;;;;;;;-4.13;85.67;100390.71;1745517;81;28291;-78
2022/12/16 03:27:32;;;;;;;86.37;40.35;;;;;;;-4.12;85.72;100384.06;1736695;81;26406;-77
2022/12/16 03:30:09;;;;;;;78.55;37.05;;;;;;;-4.12;85.77;100380.61;1733062;82;25895;-77
2022/12/16 03:33:02;;;;;;;81.82;37.20;;;;;;;-4.13;85.87;100385.48;1730294;81;26487;-77
2022/12/16 03:35:52;;;;;;;90.03;40.23;;;;;;;-4.14;86.04;100382.48;1725921;82;25281;-77
2022/12/16 03:38:20;;;;;;;90.03;39.08;;;;;;;-4.13;86.19;100380.25;1712211;83;27103;-78
2022/12/16 03:40:48;;;;;;;91.08;38.67;;;;;;;-4.13;86.29;100373.22;1732476;82;25875;-77
2022/12/16 03:43:14;;;;;;;88.10;37.60;;;;;;;-4.11;86.38;100377.91;1729273;81;25890;-78
2022/12/16 03:45:47;;;;;;;80.67;35.23;;;;;;;-4.08;86.42;100369.84;1728152;81;26547;-77
2022/12/16 03:48:16;;;;;;;88.65;38.15;;;;;;;-4.10;86.28;100364.34;1737557;81;25922;-78
2022/12/16 03:50:42;;;;;;;82.75;36.15;;;;;;;-4.13;86.40;100356.22;1721313;83;27516;-78
2022/12/16 03:53:09;;;;;;;78.47;33.58;;;;;;;-4.14;86.41;100352.41;1730764;81;26309;-77
2022/12/16 03:55:35;;;;;;;78.07;34.85;;;;;;;-4.14;86.47;100351.09;1739951;81;25732;-77
2022/12/16 03:58:01;;;;;;;80.95;37.13;;;;;;;-4.17;86.54;100352.13;1720087;83;26105;-77
2022/12/16 04:00:28;;;;;;;85.03;34.48;;;;;;;-4.15;86.71;100350.75;1726526;82;25788;-77
2022/12/16 04:02:55;;;;;;;82.62;35.60;;;;;;;-4.15;86.72;100353.36;1733222;81;28272;-77
2022/12/16 04:05:22;;;;;;;78.57;35.50;;;;;;;-4.17;86.73;100357.36;1721621;83;26162;-77
2022/12/16 04:07:48;;;;;;;80.10;35.95;;;;;;;-4.17;86.77;100356.55;1709365;83;25777;-78
2022/12/16 04:10:14;;;;;;;75.70;34.67;;;;;;;-4.17;86.83;100345.59;1726652;83;25828;-77
2022/12/16 04:27:23;;;;;;;75.17;35.28;;;;;;;-4.18;87.13;100350.47;1728452;82;26331;-77
2022/12/16 04:29:03;;;;;;;68.05;31.87;;;;;;;-4.17;87.26;100346.09;1737155;82;27454;-77
2022/12/16 04:31:29;;;;;;;77.15;32.95;;;;;;;-4.20;87.26;100339.28;1735574;82;25799;-78
